sensor_id;sensor_type;location;lat;lon;timestamp;P1;durP1;ratioP1;P2;durP2;ratioP2
54923;SDS011;40825;52.270;20.984;2023-01-01T00:00:10;11.70;;;6.40;;
54923;SDS011;40825;52.270;20.984;2023-01-01T00:02:38;11.90;;;5.20;;
54923;SDS011;40825;52.270;20.984;2023-01-01T00:05:04;10.40;;;5.50;;
54923;SDS011;40825;52.270;20.984;2023-01-01T00:07:32;8.90;;;4.30;;
54923;SDS011;40825;52.270;20.984;2023-01-01T00:09:57;9.50;;;4.80;;
54923;SDS011;40825;52.270;20.984;2023-01-01T00:12:42;8.10;;;3.80;;
54923;SDS011;40825;52.270;20.984;2023-01-01T00:15:07;9.20;;;3.80;;
54923;SDS011;40825;52.270;20.984;2023-01-01T00:17:33;8.00;;;3.10;;
54923;SDS011;40825;52.270;20.984;2023-01-01T00:19:58;8.10;;;3.20;;
54923;SDS011;40825;52.270;20.984;2023-01-01T00:22:24;8.20;;;3.10;;
54923;SDS011;40825;52.270;20.984;2023-01-01T00:24:50;7.80;;;3.20;;
54923;SDS011;40825;52.270;20.984;2023-01-01T00:27:16;7.90;;;3.00;;
54923;SDS011;40825;52.270;20.984;2023-01-01T00:29:41;8.00;;;3.90;;
54923;SDS011;40825;52.270;20.984;2023-01-01T00:32:07;6.20;;;2.90;;
54923;SDS011;40825;52.270;20.984;2023-01-01T00:34:33;7.60;;;2.50;;
54923;SDS011;40825;52.270;20.984;2023-01-01T00:36:58;7.10;;;3.10;;
54923;SDS011;40825;52.270;20.984;2023-01-01T00:39:24;7.70;;;2.70;;
54923;SDS011;40825;52.270;20.984;2023-01-01T00:41:49;6.70;;;3.00;;
54923;SDS011;40825;52.270;20.984;2023-01-01T00:44:15;8.40;;;3.10;;
54923;SDS011;40825;52.270;20.984;2023-01-01T00:46:41;7.30;;;3.30;;
54923;SDS011;40825;52.270;20.984;2023-01-01T00:49:06;6.50;;;2.90;;
54923;SDS011;40825;52.270;20.984;2023-01-01T00:51:32;7.20;;;3.10;;
54923;SDS011;40825;52.270;20.984;2023-01-01T00:53:57;6.10;;;2.50;;
54923;SDS011;40825;52.270;20.984;2023-01-01T00:56:23;6.40;;;2.80;;
54923;SDS011;40825;52.270;20.984;2023-01-01T00:58:48;8.10;;;3.00;;
54923;SDS011;40825;52.270;20.984;2023-01-01T01:01:14;5.70;;;2.40;;
54923;SDS011;40825;52.270;20.984;2023-01-01T01:03:40;7.30;;;2.70;;
54923;SDS011;40825;52.270;20.984;2023-01-01T01:06:08;7.30;;;3.10;;
54923;SDS011;40825;52.270;20.984;2023-01-01T01:08:36;7.30;;;2.50;;
54923;SDS011;40825;52.270;20.984;2023-01-01T01:13:30;5.70;;;2.40;;
54923;SDS011;40825;52.270;20.984;2023-01-01T01:15:56;6.90;;;3.60;;
54923;SDS011;40825;52.270;20.984;2023-01-01T01:18:21;7.20;;;3.10;;
54923;SDS011;40825;52.270;20.984;2023-01-01T01:20:50;6.20;;;3.00;;
54923;SDS011;40825;52.270;20.984;2023-01-01T01:23:18;7.30;;;3.00;;
54923;SDS011;40825;52.270;20.984;2023-01-01T01:25:44;7.20;;;2.70;;
54923;SDS011;40825;52.270;20.984;2023-01-01T01:28:10;7.90;;;2.90;;
54923;SDS011;40825;52.270;20.984;2023-01-01T01:30:39;6.40;;;2.70;;
54923;SDS011;40825;52.270;20.984;2023-01-01T01:33:04;7.10;;;2.70;;
54923;SDS011;40825;52.270;20.984;2023-01-01T01:35:30;6.90;;;2.70;;
54923;SDS011;40825;52.270;20.984;2023-01-01T01:37:57;5.90;;;2.10;;
54923;SDS011;40825;52.270;20.984;2023-01-01T01:40:23;8.30;;;2.50;;
54923;SDS011;40825;52.270;20.984;2023-01-01T01:42:49;6.70;;;2.40;;
54923;SDS011;40825;52.270;20.984;2023-01-01T01:45:15;6.00;;;2.50;;
54923;SDS011;40825;52.270;20.984;2023-01-01T01:47:48;6.00;;;2.20;;
54923;SDS011;40825;52.270;20.984;2023-01-01T01:50:26;7.70;;;2.70;;
54923;SDS011;40825;52.270;20.984;2023-01-01T01:53:02;6.60;;;2.50;;
54923;SDS011;40825;52.270;20.984;2023-01-01T01:55:34;6.30;;;2.40;;
54923;SDS011;40825;52.270;20.984;2023-01-01T01:58:02;6.50;;;2.90;;
54923;SDS011;40825;52.270;20.984;2023-01-01T02:02:36;6.60;;;2.70;;
54923;SDS011;40825;52.270;20.984;2023-01-01T02:05:10;5.80;;;2.60;;
54923;SDS011;40825;52.270;20.984;2023-01-01T02:07:36;5.80;;;2.20;;
54923;SDS011;40825;52.270;20.984;2023-01-01T02:10:03;7.60;;;2.70;;
54923;SDS011;40825;52.270;20.984;2023-01-01T02:12:28;6.60;;;2.70;;
54923;SDS011;40825;52.270;20.984;2023-01-01T02:14:54;7.40;;;2.60;;
54923;SDS011;40825;52.270;20.984;2023-01-01T02:18:06;7.40;;;2.60;;
54923;SDS011;40825;52.270;20.984;2023-01-01T02:26:05;5.80;;;2.80;;
54923;SDS011;40825;52.270;20.984;2023-01-01T02:29:00;6.20;;;2.60;;
54923;SDS011;40825;52.270;20.984;2023-01-01T02:31:33;6.50;;;2.50;;
54923;SDS011;40825;52.270;20.984;2023-01-01T02:34:08;7.60;;;3.00;;
54923;SDS011;40825;52.270;20.984;2023-01-01T02:36:40;8.30;;;3.00;;
54923;SDS011;40825;52.270;20.984;2023-01-01T02:39:12;5.30;;;2.20;;
54923;SDS011;40825;52.270;20.984;2023-01-01T02:41:42;6.00;;;2.50;;
54923;SDS011;40825;52.270;20.984;2023-01-01T02:44:10;7.30;;;2.50;;
54923;SDS011;40825;52.270;20.984;2023-01-01T02:46:36;6.50;;;2.60;;
54923;SDS011;40825;52.270;20.984;2023-01-01T02:49:02;6.00;;;3.00;;
54923;SDS011;40825;52.270;20.984;2023-01-01T02:51:37;7.70;;;3.20;;
54923;SDS011;40825;52.270;20.984;2023-01-01T02:57:04;8.10;;;3.00;;
54923;SDS011;40825;52.270;20.984;2023-01-01T03:02:38;7.60;;;2.90;;
54923;SDS011;40825;52.270;20.984;2023-01-01T03:13:18;6.40;;;2.80;;
54923;SDS011;40825;52.270;20.984;2023-01-01T03:16:27;7.70;;;2.60;;
54923;SDS011;40825;52.270;20.984;2023-01-01T03:21:53;5.40;;;2.00;;
54923;SDS011;40825;52.270;20.984;2023-01-01T03:24:25;6.40;;;2.40;;
54923;SDS011;40825;52.270;20.984;2023-01-01T03:26:57;5.60;;;2.20;;
54923;SDS011;40825;52.270;20.984;2023-01-01T03:29:29;7.20;;;2.70;;
54923;SDS011;40825;52.270;20.984;2023-01-01T03:31:58;7.90;;;2.20;;
54923;SDS011;40825;52.270;20.984;2023-01-01T03:34:31;4.90;;;2.20;;
54923;SDS011;40825;52.270;20.984;2023-01-01T03:39:42;6.00;;;2.10;;
54923;SDS011;40825;52.270;20.984;2023-01-01T03:45:09;7.80;;;3.20;;
54923;SDS011;40825;52.270;20.984;2023-01-01T03:50:02;5.60;;;2.20;;
54923;SDS011;40825;52.270;20.984;2023-01-01T03:52:33;5.30;;;2.10;;
54923;SDS011;40825;52.270;20.984;2023-01-01T03:55:30;6.00;;;2.50;;
54923;SDS011;40825;52.270;20.984;2023-01-01T03:58:01;6.10;;;2.20;;
54923;SDS011;40825;52.270;20.984;2023-01-01T04:00:45;6.40;;;2.30;;
54923;SDS011;40825;52.270;20.984;2023-01-01T04:03:21;6.10;;;2.70;;
54923;SDS011;40825;52.270;20.984;2023-01-01T04:05:49;8.20;;;2.40;;
54923;SDS011;40825;52.270;20.984;2023-01-01T04:08:15;5.60;;;2.00;;
54923;SDS011;40825;52.270;20.984;2023-01-01T04:10:42;5.60;;;2.30;;
54923;SDS011;40825;52.270;20.984;2023-01-01T04:13:11;6.00;;;2.20;;
54923;SDS011;40825;52.270;20.984;2023-01-01T04:15:37;6.00;;;2.40;;
54923;SDS011;40825;52.270;20.984;2023-01-01T04:18:03;6.50;;;2.30;;
54923;SDS011;40825;52.270;20.984;2023-01-01T04:20:29;6.10;;;2.30;;
54923;SDS011;40825;52.270;20.984;2023-01-01T04:22:55;6.40;;;2.40;;
54923;SDS011;40825;52.270;20.984;2023-01-01T04:25:22;7.20;;;2.50;;
54923;SDS011;40825;52.270;20.984;2023-01-01T04:27:47;5.40;;;1.80;;
54923;SDS011;40825;52.270;20.984;2023-01-01T04:30:13;6.00;;;2.60;;
54923;SDS011;40825;52.270;20.984;2023-01-01T04:32:39;5.70;;;2.10;;
54923;SDS011;40825;52.270;20.984;2023-01-01T04:35:06;6.50;;;3.10;;
54923;SDS011;40825;52.270;20.984;2023-01-01T04:37:36;6.90;;;3.10;;
54923;SDS011;40825;52.270;20.984;2023-01-01T04:40:02;6.70;;;3.00;;
54923;SDS011;40825;52.270;20.984;2023-01-01T04:42:28;8.40;;;3.20;;
54923;SDS011;40825;52.270;20.984;2023-01-01T04:44:54;7.40;;;3.60;;
54923;SDS011;40825;52.270;20.984;2023-01-01T04:47:19;7.00;;;3.50;;
54923;SDS011;40825;52.270;20.984;2023-01-01T04:49:46;8.60;;;3.50;;
54923;SDS011;40825;52.270;20.984;2023-01-01T04:52:11;7.50;;;3.10;;
54923;SDS011;40825;52.270;20.984;2023-01-01T04:54:37;5.20;;;2.40;;
54923;SDS011;40825;52.270;20.984;2023-01-01T04:57:02;6.20;;;2.50;;
54923;SDS011;40825;52.270;20.984;2023-01-01T04:59:28;5.60;;;2.30;;
54923;SDS011;40825;52.270;20.984;2023-01-01T05:01:55;6.50;;;2.40;;
54923;SDS011;40825;52.270;20.984;2023-01-01T05:04:23;5.70;;;2.60;;
54923;SDS011;40825;52.270;20.984;2023-01-01T05:06:49;6.40;;;2.40;;
54923;SDS011;40825;52.270;20.984;2023-01-01T05:09:14;6.80;;;2.40;;
54923;SDS011;40825;52.270;20.984;2023-01-01T05:11:40;4.30;;;1.80;;
54923;SDS011;40825;52.270;20.984;2023-01-01T05:14:05;6.30;;;2.20;;
54923;SDS011;40825;52.270;20.984;2023-01-01T05:16:32;5.70;;;1.90;;
54923;SDS011;40825;52.270;20.984;2023-01-01T05:19:02;4.90;;;2.10;;
54923;SDS011;40825;52.270;20.984;2023-01-01T05:21:30;5.40;;;2.40;;
54923;SDS011;40825;52.270;20.984;2023-01-01T05:26:24;5.20;;;1.80;;
54923;SDS011;40825;52.270;20.984;2023-01-01T05:28:53;5.70;;;1.80;;
54923;SDS011;40825;52.270;20.984;2023-01-01T05:31:20;6.60;;;2.00;;
54923;SDS011;40825;52.270;20.984;2023-01-01T05:33:48;6.00;;;2.50;;
54923;SDS011;40825;52.270;20.984;2023-01-01T05:36:22;6.80;;;2.60;;
54923;SDS011;40825;52.270;20.984;2023-01-01T05:38:49;6.00;;;2.40;;
54923;SDS011;40825;52.270;20.984;2023-01-01T05:41:15;5.70;;;2.10;;
54923;SDS011;40825;52.270;20.984;2023-01-01T05:43:42;6.60;;;2.70;;
54923;SDS011;40825;52.270;20.984;2023-01-01T05:46:13;5.70;;;2.20;;
54923;SDS011;40825;52.270;20.984;2023-01-01T05:48:44;8.70;;;2.40;;
54923;SDS011;40825;52.270;20.984;2023-01-01T05:51:14;5.50;;;2.10;;
54923;SDS011;40825;52.270;20.984;2023-01-01T05:53:42;4.40;;;1.90;;
54923;SDS011;40825;52.270;20.984;2023-01-01T05:56:11;4.70;;;2.00;;
54923;SDS011;40825;52.270;20.984;2023-01-01T05:58:38;6.40;;;2.20;;
54923;SDS011;40825;52.270;20.984;2023-01-01T06:01:15;5.80;;;2.20;;
54923;SDS011;40825;52.270;20.984;2023-01-01T06:03:59;8.50;;;2.80;;
54923;SDS011;40825;52.270;20.984;2023-01-01T06:06:25;5.90;;;2.50;;
54923;SDS011;40825;52.270;20.984;2023-01-01T06:08:54;6.00;;;2.60;;
54923;SDS011;40825;52.270;20.984;2023-01-01T06:11:21;5.40;;;2.10;;
54923;SDS011;40825;52.270;20.984;2023-01-01T06:13:47;5.90;;;2.40;;
54923;SDS011;40825;52.270;20.984;2023-01-01T06:16:16;5.90;;;2.00;;
54923;SDS011;40825;52.270;20.984;2023-01-01T06:18:42;5.20;;;1.70;;
54923;SDS011;40825;52.270;20.984;2023-01-01T06:21:12;5.30;;;1.90;;
54923;SDS011;40825;52.270;20.984;2023-01-01T06:23:40;5.10;;;2.00;;
54923;SDS011;40825;52.270;20.984;2023-01-01T06:26:19;5.20;;;2.30;;
54923;SDS011;40825;52.270;20.984;2023-01-01T06:28:47;5.50;;;2.30;;
54923;SDS011;40825;52.270;20.984;2023-01-01T06:31:14;6.00;;;2.30;;
54923;SDS011;40825;52.270;20.984;2023-01-01T06:33:41;6.10;;;2.30;;
54923;SDS011;40825;52.270;20.984;2023-01-01T06:36:08;5.90;;;2.20;;
54923;SDS011;40825;52.270;20.984;2023-01-01T06:38:37;5.10;;;2.30;;
54923;SDS011;40825;52.270;20.984;2023-01-01T06:41:05;4.50;;;1.90;;
54923;SDS011;40825;52.270;20.984;2023-01-01T06:43:32;6.20;;;2.40;;
54923;SDS011;40825;52.270;20.984;2023-01-01T06:46:04;6.40;;;2.10;;
54923;SDS011;40825;52.270;20.984;2023-01-01T06:48:38;7.00;;;2.00;;
54923;SDS011;40825;52.270;20.984;2023-01-01T06:51:08;6.00;;;2.40;;
54923;SDS011;40825;52.270;20.984;2023-01-01T06:53:35;5.70;;;1.70;;
54923;SDS011;40825;52.270;20.984;2023-01-01T06:56:02;5.70;;;2.30;;
54923;SDS011;40825;52.270;20.984;2023-01-01T06:58:28;5.30;;;2.10;;
54923;SDS011;40825;52.270;20.984;2023-01-01T07:00:53;6.40;;;2.50;;
54923;SDS011;40825;52.270;20.984;2023-01-01T07:03:19;6.40;;;2.20;;
54923;SDS011;40825;52.270;20.984;2023-01-01T07:05:44;5.60;;;2.80;;
54923;SDS011;40825;52.270;20.984;2023-01-01T07:08:10;5.80;;;1.60;;
54923;SDS011;40825;52.270;20.984;2023-01-01T07:10:35;4.60;;;1.70;;
54923;SDS011;40825;52.270;20.984;2023-01-01T07:13:01;6.70;;;2.00;;
54923;SDS011;40825;52.270;20.984;2023-01-01T07:15:26;5.70;;;2.40;;
54923;SDS011;40825;52.270;20.984;2023-01-01T07:17:52;4.50;;;1.90;;
54923;SDS011;40825;52.270;20.984;2023-01-01T07:20:17;7.00;;;2.90;;
54923;SDS011;40825;52.270;20.984;2023-01-01T07:22:43;5.70;;;2.30;;
54923;SDS011;40825;52.270;20.984;2023-01-01T07:25:09;6.60;;;2.10;;
54923;SDS011;40825;52.270;20.984;2023-01-01T07:27:38;4.90;;;1.70;;
54923;SDS011;40825;52.270;20.984;2023-01-01T07:30:04;5.70;;;1.80;;
54923;SDS011;40825;52.270;20.984;2023-01-01T07:32:30;4.90;;;1.90;;
54923;SDS011;40825;52.270;20.984;2023-01-01T07:34:56;5.20;;;1.90;;
54923;SDS011;40825;52.270;20.984;2023-01-01T07:37:22;8.10;;;2.70;;
54923;SDS011;40825;52.270;20.984;2023-01-01T07:39:50;6.90;;;2.30;;
54923;SDS011;40825;52.270;20.984;2023-01-01T07:42:16;6.10;;;2.40;;
54923;SDS011;40825;52.270;20.984;2023-01-01T07:44:42;4.20;;;1.70;;
54923;SDS011;40825;52.270;20.984;2023-01-01T07:47:14;7.40;;;2.90;;
54923;SDS011;40825;52.270;20.984;2023-01-01T07:49:46;7.40;;;2.30;;
54923;SDS011;40825;52.270;20.984;2023-01-01T07:52:11;4.60;;;1.70;;
54923;SDS011;40825;52.270;20.984;2023-01-01T07:54:37;5.90;;;2.30;;
54923;SDS011;40825;52.270;20.984;2023-01-01T07:57:02;6.80;;;1.90;;
54923;SDS011;40825;52.270;20.984;2023-01-01T07:59:28;6.10;;;2.40;;
54923;SDS011;40825;52.270;20.984;2023-01-01T08:01:53;4.10;;;1.80;;
54923;SDS011;40825;52.270;20.984;2023-01-01T08:04:19;5.40;;;2.30;;
54923;SDS011;40825;52.270;20.984;2023-01-01T08:06:44;5.00;;;2.10;;
54923;SDS011;40825;52.270;20.984;2023-01-01T08:09:10;6.10;;;2.00;;
54923;SDS011;40825;52.270;20.984;2023-01-01T08:11:35;7.20;;;2.00;;
54923;SDS011;40825;52.270;20.984;2023-01-01T08:14:01;8.90;;;2.60;;
54923;SDS011;40825;52.270;20.984;2023-01-01T08:16:27;5.70;;;2.00;;
54923;SDS011;40825;52.270;20.984;2023-01-01T08:18:52;4.90;;;1.80;;
54923;SDS011;40825;52.270;20.984;2023-01-01T08:21:17;7.60;;;2.60;;
54923;SDS011;40825;52.270;20.984;2023-01-01T08:23:43;5.30;;;2.00;;
54923;SDS011;40825;52.270;20.984;2023-01-01T08:26:15;6.30;;;2.10;;
54923;SDS011;40825;52.270;20.984;2023-01-01T08:28:42;5.80;;;1.70;;
54923;SDS011;40825;52.270;20.984;2023-01-01T08:31:09;8.70;;;2.20;;
54923;SDS011;40825;52.270;20.984;2023-01-01T08:33:34;7.40;;;2.10;;
54923;SDS011;40825;52.270;20.984;2023-01-01T08:36:00;6.00;;;2.10;;
54923;SDS011;40825;52.270;20.984;2023-01-01T08:38:26;6.00;;;1.80;;
54923;SDS011;40825;52.270;20.984;2023-01-01T08:40:51;6.20;;;2.20;;
54923;SDS011;40825;52.270;20.984;2023-01-01T08:43:17;5.90;;;2.00;;
54923;SDS011;40825;52.270;20.984;2023-01-01T08:45:43;5.90;;;1.70;;
54923;SDS011;40825;52.270;20.984;2023-01-01T08:48:09;5.50;;;1.80;;
54923;SDS011;40825;52.270;20.984;2023-01-01T08:50:35;7.60;;;2.10;;
54923;SDS011;40825;52.270;20.984;2023-01-01T08:53:01;6.10;;;1.60;;
54923;SDS011;40825;52.270;20.984;2023-01-01T08:55:28;7.00;;;2.30;;
54923;SDS011;40825;52.270;20.984;2023-01-01T08:57:53;6.80;;;2.00;;
54923;SDS011;40825;52.270;20.984;2023-01-01T09:00:19;7.80;;;2.30;;
54923;SDS011;40825;52.270;20.984;2023-01-01T09:02:45;6.70;;;2.50;;
54923;SDS011;40825;52.270;20.984;2023-01-01T09:05:10;8.20;;;2.20;;
54923;SDS011;40825;52.270;20.984;2023-01-01T09:07:36;6.30;;;2.00;;
54923;SDS011;40825;52.270;20.984;2023-01-01T09:10:02;6.90;;;2.30;;
54923;SDS011;40825;52.270;20.984;2023-01-01T09:12:28;7.30;;;2.20;;
54923;SDS011;40825;52.270;20.984;2023-01-01T09:14:54;7.10;;;2.00;;
54923;SDS011;40825;52.270;20.984;2023-01-01T09:17:19;5.10;;;2.00;;
54923;SDS011;40825;52.270;20.984;2023-01-01T09:19:45;8.00;;;2.40;;
54923;SDS011;40825;52.270;20.984;2023-01-01T09:22:10;9.60;;;2.50;;
54923;SDS011;40825;52.270;20.984;2023-01-01T09:24:36;8.10;;;2.00;;
54923;SDS011;40825;52.270;20.984;2023-01-01T09:27:02;6.00;;;2.10;;
54923;SDS011;40825;52.270;20.984;2023-01-01T09:29:27;8.60;;;2.30;;
54923;SDS011;40825;52.270;20.984;2023-01-01T09:31:53;8.80;;;2.70;;
54923;SDS011;40825;52.270;20.984;2023-01-01T09:34:18;6.50;;;2.30;;
54923;SDS011;40825;52.270;20.984;2023-01-01T09:36:44;7.50;;;2.10;;
54923;SDS011;40825;52.270;20.984;2023-01-01T09:39:14;5.70;;;1.70;;
54923;SDS011;40825;52.270;20.984;2023-01-01T09:41:56;6.80;;;1.60;;
54923;SDS011;40825;52.270;20.984;2023-01-01T09:47:22;8.70;;;1.60;;
54923;SDS011;40825;52.270;20.984;2023-01-01T09:49:53;6.10;;;1.80;;
54923;SDS011;40825;52.270;20.984;2023-01-01T09:52:26;6.80;;;1.50;;
54923;SDS011;40825;52.270;20.984;2023-01-01T09:57:27;7.70;;;1.90;;
54923;SDS011;40825;52.270;20.984;2023-01-01T09:59:56;5.40;;;1.70;;
54923;SDS011;40825;52.270;20.984;2023-01-01T10:07:47;4.30;;;1.40;;
54923;SDS011;40825;52.270;20.984;2023-01-01T10:15:51;6.80;;;2.10;;
54923;SDS011;40825;52.270;20.984;2023-01-01T10:18:19;8.30;;;1.90;;
54923;SDS011;40825;52.270;20.984;2023-01-01T10:20:57;6.20;;;2.00;;
54923;SDS011;40825;52.270;20.984;2023-01-01T10:24:22;6.20;;;2.20;;
54923;SDS011;40825;52.270;20.984;2023-01-01T10:26:23;6.70;;;1.80;;
54923;SDS011;40825;52.270;20.984;2023-01-01T10:31:38;7.70;;;1.90;;
54923;SDS011;40825;52.270;20.984;2023-01-01T10:34:24;5.90;;;1.80;;
54923;SDS011;40825;52.270;20.984;2023-01-01T10:36:53;7.40;;;2.90;;
54923;SDS011;40825;52.270;20.984;2023-01-01T10:39:21;8.10;;;2.20;;
54923;SDS011;40825;52.270;20.984;2023-01-01T10:41:48;4.10;;;1.30;;
54923;SDS011;40825;52.270;20.984;2023-01-01T10:44:15;6.50;;;1.60;;
54923;SDS011;40825;52.270;20.984;2023-01-01T10:46:48;7.90;;;1.80;;
54923;SDS011;40825;52.270;20.984;2023-01-01T10:49:18;5.80;;;1.30;;
54923;SDS011;40825;52.270;20.984;2023-01-01T10:51:45;5.50;;;1.30;;
54923;SDS011;40825;52.270;20.984;2023-01-01T10:54:21;8.70;;;2.40;;
54923;SDS011;40825;52.270;20.984;2023-01-01T10:56:53;9.40;;;2.40;;
54923;SDS011;40825;52.270;20.984;2023-01-01T10:59:38;8.20;;;1.80;;
54923;SDS011;40825;52.270;20.984;2023-01-01T11:04:39;7.90;;;1.70;;
54923;SDS011;40825;52.270;20.984;2023-01-01T11:07:05;5.80;;;1.80;;
54923;SDS011;40825;52.270;20.984;2023-01-01T11:09:31;7.70;;;1.60;;
54923;SDS011;40825;52.270;20.984;2023-01-01T11:12:01;8.80;;;2.20;;
54923;SDS011;40825;52.270;20.984;2023-01-01T11:17:13;6.40;;;1.90;;
54923;SDS011;40825;52.270;20.984;2023-01-01T11:19:46;8.20;;;2.20;;
54923;SDS011;40825;52.270;20.984;2023-01-01T11:25:00;5.90;;;1.90;;
54923;SDS011;40825;52.270;20.984;2023-01-01T11:27:27;6.50;;;1.80;;
54923;SDS011;40825;52.270;20.984;2023-01-01T11:30:12;12.20;;;2.40;;
54923;SDS011;40825;52.270;20.984;2023-01-01T11:32:49;8.60;;;1.80;;
54923;SDS011;40825;52.270;20.984;2023-01-01T11:35:19;8.30;;;1.80;;
54923;SDS011;40825;52.270;20.984;2023-01-01T11:37:47;6.90;;;1.60;;
54923;SDS011;40825;52.270;20.984;2023-01-01T11:40:26;8.00;;;2.00;;
54923;SDS011;40825;52.270;20.984;2023-01-01T11:42:58;7.50;;;1.70;;
54923;SDS011;40825;52.270;20.984;2023-01-01T11:45:32;5.40;;;1.70;;
54923;SDS011;40825;52.270;20.984;2023-01-01T11:48:03;5.30;;;1.50;;
54923;SDS011;40825;52.270;20.984;2023-01-01T11:50:35;8.80;;;1.90;;
54923;SDS011;40825;52.270;20.984;2023-01-01T12:01:06;7.80;;;1.70;;
54923;SDS011;40825;52.270;20.984;2023-01-01T12:06:24;8.10;;;1.90;;
54923;SDS011;40825;52.270;20.984;2023-01-01T12:11:51;5.10;;;1.20;;
54923;SDS011;40825;52.270;20.984;2023-01-01T12:14:25;6.00;;;1.90;;
54923;SDS011;40825;52.270;20.984;2023-01-01T12:17:00;7.60;;;2.10;;
54923;SDS011;40825;52.270;20.984;2023-01-01T12:22:18;7.40;;;1.60;;
54923;SDS011;40825;52.270;20.984;2023-01-01T12:24:45;4.80;;;1.90;;
54923;SDS011;40825;52.270;20.984;2023-01-01T12:30:22;7.60;;;1.90;;
54923;SDS011;40825;52.270;20.984;2023-01-01T12:33:15;6.00;;;1.80;;
54923;SDS011;40825;52.270;20.984;2023-01-01T12:44:24;7.20;;;2.70;;
54923;SDS011;40825;52.270;20.984;2023-01-01T13:00:19;5.00;;;1.60;;
54923;SDS011;40825;52.270;20.984;2023-01-01T13:02:47;8.10;;;2.20;;
54923;SDS011;40825;52.270;20.984;2023-01-01T13:08:06;4.30;;;1.60;;
54923;SDS011;40825;52.270;20.984;2023-01-01T13:10:39;8.60;;;1.70;;
54923;SDS011;40825;52.270;20.984;2023-01-01T13:13:09;7.30;;;2.10;;
54923;SDS011;40825;52.270;20.984;2023-01-01T13:18:05;9.20;;;2.90;;
54923;SDS011;40825;52.270;20.984;2023-01-01T13:20:45;6.30;;;2.10;;
54923;SDS011;40825;52.270;20.984;2023-01-01T13:45:03;7.60;;;2.50;;
54923;SDS011;40825;52.270;20.984;2023-01-01T14:04:44;6.30;;;2.20;;
54923;SDS011;40825;52.270;20.984;2023-01-01T14:09:43;5.20;;;1.80;;
54923;SDS011;40825;52.270;20.984;2023-01-01T14:12:13;7.30;;;2.20;;
54923;SDS011;40825;52.270;20.984;2023-01-01T14:14:41;6.80;;;2.00;;
54923;SDS011;40825;52.270;20.984;2023-01-01T14:17:07;7.10;;;2.20;;
54923;SDS011;40825;52.270;20.984;2023-01-01T14:19:32;5.90;;;2.10;;
54923;SDS011;40825;52.270;20.984;2023-01-01T14:21:59;6.20;;;2.50;;
54923;SDS011;40825;52.270;20.984;2023-01-01T14:24:26;6.60;;;2.20;;
54923;SDS011;40825;52.270;20.984;2023-01-01T14:26:52;9.90;;;2.80;;
54923;SDS011;40825;52.270;20.984;2023-01-01T14:29:21;6.20;;;2.20;;
54923;SDS011;40825;52.270;20.984;2023-01-01T14:31:52;8.10;;;2.30;;
54923;SDS011;40825;52.270;20.984;2023-01-01T14:34:25;8.80;;;2.80;;
54923;SDS011;40825;52.270;20.984;2023-01-01T14:36:57;8.60;;;2.40;;
54923;SDS011;40825;52.270;20.984;2023-01-01T14:39:28;7.40;;;2.80;;
54923;SDS011;40825;52.270;20.984;2023-01-01T14:41:59;7.30;;;2.80;;
54923;SDS011;40825;52.270;20.984;2023-01-01T14:44:33;9.60;;;2.70;;
54923;SDS011;40825;52.270;20.984;2023-01-01T14:47:08;8.00;;;2.50;;
54923;SDS011;40825;52.270;20.984;2023-01-01T14:49:45;7.50;;;2.40;;
54923;SDS011;40825;52.270;20.984;2023-01-01T14:52:15;11.20;;;3.20;;
54923;SDS011;40825;52.270;20.984;2023-01-01T14:54:47;7.80;;;2.70;;
54923;SDS011;40825;52.270;20.984;2023-01-01T14:57:15;10.30;;;2.80;;
54923;SDS011;40825;52.270;20.984;2023-01-01T14:59:46;7.70;;;2.40;;
54923;SDS011;40825;52.270;20.984;2023-01-01T15:02:14;7.60;;;2.30;;
54923;SDS011;40825;52.270;20.984;2023-01-01T15:04:44;6.80;;;2.30;;
54923;SDS011;40825;52.270;20.984;2023-01-01T15:07:20;6.70;;;2.60;;
54923;SDS011;40825;52.270;20.984;2023-01-01T15:09:49;7.50;;;2.50;;
54923;SDS011;40825;52.270;20.984;2023-01-01T15:12:16;7.00;;;2.40;;
54923;SDS011;40825;52.270;20.984;2023-01-01T15:14:42;7.40;;;2.50;;
54923;SDS011;40825;52.270;20.984;2023-01-01T15:17:10;8.90;;;2.60;;
54923;SDS011;40825;52.270;20.984;2023-01-01T15:19:39;7.90;;;2.90;;
54923;SDS011;40825;52.270;20.984;2023-01-01T15:22:07;6.50;;;2.40;;
54923;SDS011;40825;52.270;20.984;2023-01-01T15:27:13;9.20;;;3.40;;
54923;SDS011;40825;52.270;20.984;2023-01-01T15:30:03;8.10;;;2.70;;
54923;SDS011;40825;52.270;20.984;2023-01-01T15:32:31;8.80;;;2.70;;
54923;SDS011;40825;52.270;20.984;2023-01-01T15:34:59;9.50;;;2.80;;
54923;SDS011;40825;52.270;20.984;2023-01-01T15:40:00;8.10;;;3.00;;
54923;SDS011;40825;52.270;20.984;2023-01-01T15:42:46;7.00;;;2.80;;
54923;SDS011;40825;52.270;20.984;2023-01-01T15:45:38;8.10;;;2.80;;
54923;SDS011;40825;52.270;20.984;2023-01-01T15:50:42;8.40;;;3.50;;
54923;SDS011;40825;52.270;20.984;2023-01-01T15:53:27;8.30;;;3.20;;
54923;SDS011;40825;52.270;20.984;2023-01-01T15:55:55;8.20;;;3.00;;
54923;SDS011;40825;52.270;20.984;2023-01-01T15:58:36;7.40;;;2.90;;
54923;SDS011;40825;52.270;20.984;2023-01-01T16:01:17;8.00;;;3.20;;
54923;SDS011;40825;52.270;20.984;2023-01-01T16:03:49;6.20;;;2.80;;
54923;SDS011;40825;52.270;20.984;2023-01-01T16:06:19;7.30;;;2.70;;
54923;SDS011;40825;52.270;20.984;2023-01-01T16:08:46;7.10;;;2.50;;
54923;SDS011;40825;52.270;20.984;2023-01-01T16:11:11;6.00;;;2.80;;
54923;SDS011;40825;52.270;20.984;2023-01-01T16:13:38;8.70;;;2.70;;
54923;SDS011;40825;52.270;20.984;2023-01-01T16:16:04;6.70;;;3.00;;
54923;SDS011;40825;52.270;20.984;2023-01-01T16:18:57;7.80;;;2.60;;
54923;SDS011;40825;52.270;20.984;2023-01-01T16:21:25;8.50;;;3.30;;
54923;SDS011;40825;52.270;20.984;2023-01-01T16:23:52;10.00;;;3.70;;
54923;SDS011;40825;52.270;20.984;2023-01-01T16:26:18;7.50;;;2.90;;
54923;SDS011;40825;52.270;20.984;2023-01-01T16:28:44;8.10;;;3.00;;
54923;SDS011;40825;52.270;20.984;2023-01-01T16:31:16;8.30;;;2.80;;
54923;SDS011;40825;52.270;20.984;2023-01-01T16:33:46;6.30;;;3.10;;
54923;SDS011;40825;52.270;20.984;2023-01-01T16:36:16;9.60;;;3.40;;
54923;SDS011;40825;52.270;20.984;2023-01-01T16:38:41;9.00;;;3.20;;
54923;SDS011;40825;52.270;20.984;2023-01-01T16:41:11;6.90;;;2.90;;
54923;SDS011;40825;52.270;20.984;2023-01-01T16:43:41;7.30;;;3.30;;
54923;SDS011;40825;52.270;20.984;2023-01-01T16:46:07;8.10;;;3.80;;
54923;SDS011;40825;52.270;20.984;2023-01-01T16:48:33;7.20;;;2.80;;
54923;SDS011;40825;52.270;20.984;2023-01-01T16:50:58;9.00;;;3.60;;
54923;SDS011;40825;52.270;20.984;2023-01-01T16:53:24;9.90;;;3.40;;
54923;SDS011;40825;52.270;20.984;2023-01-01T16:55:50;7.00;;;3.30;;
54923;SDS011;40825;52.270;20.984;2023-01-01T16:58:16;8.30;;;3.20;;
54923;SDS011;40825;52.270;20.984;2023-01-01T17:00:41;10.30;;;3.50;;
54923;SDS011;40825;52.270;20.984;2023-01-01T17:03:07;7.10;;;3.00;;
54923;SDS011;40825;52.270;20.984;2023-01-01T17:05:37;7.90;;;3.30;;
54923;SDS011;40825;52.270;20.984;2023-01-01T17:08:03;7.90;;;3.20;;
54923;SDS011;40825;52.270;20.984;2023-01-01T17:10:29;11.40;;;3.70;;
54923;SDS011;40825;52.270;20.984;2023-01-01T17:12:54;9.20;;;3.40;;
54923;SDS011;40825;52.270;20.984;2023-01-01T17:15:26;8.60;;;3.40;;
54923;SDS011;40825;52.270;20.984;2023-01-01T17:17:52;9.40;;;3.40;;
54923;SDS011;40825;52.270;20.984;2023-01-01T17:20:18;8.60;;;3.10;;
54923;SDS011;40825;52.270;20.984;2023-01-01T17:22:44;10.60;;;3.40;;
54923;SDS011;40825;52.270;20.984;2023-01-01T17:25:09;8.70;;;3.40;;